Time;durP1;ratioP1;P1;durP2;ratioP2;P2;SDS_P1;SDS_P2;PMS_P1;PMS_P2;Temp;Humidity;BMP_temperature;BMP_pressure;BME280_temperature;BME280_humidity;BME280_pressure;Samples;Min_cycle;Max_cycle;Signal;HPM_P1;HPM_P2
2022/07/03 00:01:29;;;;;;;4.40;2.85;;;17.30;99.90;;;;;;5026045;28;20060;-76
2022/07/03 00:03:55;;;;;;;4.60;2.95;;;17.30;99.90;;;;;;5060030;28;20037;-76
2022/07/03 00:06:21;;;;;;;4.47;2.78;;;17.20;99.90;;;;;;5059095;28;20045;-76
2022/07/03 00:08:47;;;;;;;6.78;2.88;;;17.20;99.90;;;;;;5042464;28;20044;-78
2022/07/03 00:11:13;;;;;;;3.67;2.97;;;17.20;99.90;;;;;;5059184;28;20049;-78
2022/07/03 00:13:38;;;;;;;4.38;2.83;;;17.20;99.90;;;;;;5069754;28;20045;-78
2022/07/03 00:16:04;;;;;;;3.70;2.72;;;17.20;99.90;;;;;;5059132;28;20036;-76
2022/07/03 00:18:30;;;;;;;3.85;2.95;;;17.20;99.90;;;;;;5074981;28;20071;-76
2022/07/03 00:21:08;;;;;;;4.13;3.15;;;17.10;99.90;;;;;;5042056;28;20043;-76
2022/07/03 00:24:02;;;;;;;4.40;3.00;;;17.10;99.90;;;;;;5051764;28;20063;-76
2022/07/03 00:26:39;;;;;;;3.15;2.70;;;17.10;99.90;;;;;;5059954;28;20071;-76
2022/07/03 00:29:06;;;;;;;4.15;2.80;;;17.00;99.90;;;;;;5052700;28;20455;-76
2022/07/03 00:31:33;;;;;;;3.15;2.83;;;17.00;99.90;;;;;;5065039;28;20162;-76
2022/07/03 00:34:00;;;;;;;3.42;2.97;;;17.00;99.90;;;;;;5067137;28;20064;-76
2022/07/03 00:36:37;;;;;;;2.95;2.70;;;17.00;99.90;;;;;;5051309;28;21089;-76
2022/07/03 00:39:03;;;;;;;3.28;3.05;;;16.90;99.90;;;;;;5075410;28;20044;-76
2022/07/03 00:41:33;;;;;;;4.63;2.95;;;16.90;99.90;;;;;;5057050;28;20051;-76
2022/07/03 00:43:59;;;;;;;4.10;2.88;;;16.80;99.90;;;;;;5059228;28;20062;-76
2022/07/03 00:46:26;;;;;;;3.67;3.38;;;16.90;99.90;;;;;;5063596;28;20044;-75
2022/07/03 00:48:54;;;;;;;4.03;3.20;;;16.90;99.90;;;;;;5024603;28;20045;-77
2022/07/03 00:51:27;;;;;;;3.58;3.25;;;16.80;99.90;;;;;;5052533;28;20617;-77
2022/07/03 00:53:56;;;;;;;3.83;3.08;;;16.80;99.90;;;;;;5058424;28;20052;-77
2022/07/03 00:56:28;;;;;;;4.63;3.10;;;16.80;99.90;;;;;;5049190;28;20076;-76
2022/07/03 00:58:59;;;;;;;3.33;2.80;;;16.80;99.90;;;;;;5064200;28;20808;-76
2022/07/03 01:01:30;;;;;;;3.50;3.10;;;16.70;99.90;;;;;;5059120;28;20052;-76
2022/07/03 01:04:21;;;;;;;4.53;3.35;;;16.70;99.90;;;;;;5058794;28;20045;-76
2022/07/03 01:06:52;;;;;;;4.60;3.25;;;16.70;99.90;;;;;;5048704;28;20033;-77
2022/07/03 01:09:25;;;;;;;3.75;3.20;;;16.70;99.90;;;;;;5064984;28;20044;-76
2022/07/03 01:12:23;;;;;;;3.63;3.33;;;16.70;99.90;;;;;;5055305;28;20086;-76
2022/07/03 01:15:15;;;;;;;5.65;3.22;;;16.70;99.90;;;;;;5070074;28;20033;-76
2022/07/03 01:17:53;;;;;;;3.63;3.33;;;16.70;99.90;;;;;;5047019;28;20049;-76
2022/07/03 01:20:27;;;;;;;3.97;3.65;;;16.60;99.90;;;;;;5056348;28;20090;-76
2022/07/03 01:22:59;;;;;;;4.63;3.70;;;16.60;99.90;;;;;;5070770;28;20048;-75
2022/07/03 01:26:03;;;;;;;4.35;3.95;;;16.60;99.90;;;;;;5063300;28;20063;-75
2022/07/03 01:28:28;;;;;;;5.35;3.78;;;16.60;99.90;;;;;;5030905;28;20082;-75
2022/07/03 01:30:54;;;;;;;6.18;4.38;;;16.50;99.90;;;;;;5025633;28;20037;-76
2022/07/03 01:33:26;;;;;;;5.85;4.28;;;16.50;99.90;;;;;;5057577;28;20112;-76
2022/07/03 01:36:06;;;;;;;6.43;4.40;;;16.50;99.90;;;;;;5057401;28;20663;-76
2022/07/03 01:38:40;;;;;;;4.80;4.30;;;16.50;99.90;;;;;;5055902;28;20044;-76
2022/07/03 01:41:08;;;;;;;6.55;4.20;;;16.40;99.90;;;;;;5067646;28;20048;-75
2022/07/03 01:43:41;;;;;;;5.93;4.45;;;16.30;99.90;;;;;;5074714;28;20051;-76
2022/07/03 01:46:08;;;;;;;5.75;4.20;;;16.40;99.90;;;;;;5057333;28;20133;-76
2022/07/03 01:48:35;;;;;;;4.95;4.45;;;16.30;99.90;;;;;;5073585;28;20052;-76
2022/07/03 01:51:01;;;;;;;5.55;5.03;;;16.20;99.90;;;;;;5035169;28;20056;-76
2022/07/03 01:53:30;;;;;;;6.38;5.35;;;16.20;99.90;;;;;;5055376;28;20546;-76
2022/07/03 01:55:59;;;;;;;6.00;5.00;;;16.20;99.90;;;;;;5047161;28;20045;-76
2022/07/03 01:58:25;;;;;;;5.55;5.05;;;16.10;99.90;;;;;;5073553;28;20053;-76
2022/07/03 02:01:04;;;;;;;5.68;4.88;;;16.10;99.90;;;;;;5074511;28;20098;-77
2022/07/03 02:03:32;;;;;;;5.57;5.07;;;16.10;99.90;;;;;;5062465;28;20054;-76
2022/07/03 02:06:12;;;;;;;5.85;5.22;;;16.10;99.90;;;;;;5040819;28;20159;-76
2022/07/03 02:08:49;;;;;;;6.68;5.93;;;16.00;99.90;;;;;;5057191;28;20044;-76
2022/07/03 02:11:28;;;;;;;6.40;5.53;;;15.90;99.90;;;;;;5056358;28;20100;-77
2022/07/03 02:14:03;;;;;;;6.63;5.60;;;15.80;99.90;;;;;;5070340;28;20516;-77
2022/07/03 02:16:34;;;;;;;7.13;5.80;;;15.90;99.90;;;;;;5053560;28;20048;-77
2022/07/03 02:19:04;;;;;;;5.38;4.88;;;15.80;99.90;;;;;;5068020;28;20053;-76
2022/07/03 02:21:31;;;;;;;6.35;5.75;;;15.70;99.90;;;;;;5056769;28;20512;-76
2022/07/03 02:24:26;;;;;;;6.40;5.80;;;15.70;99.90;;;;;;5054536;28;20041;-77
2022/07/03 02:26:51;;;;;;;5.85;5.28;;;15.70;99.90;;;;;;5067867;28;20059;-76
2022/07/03 02:29:20;;;;;;;5.95;5.43;;;15.60;99.90;;;;;;5069565;28;20447;-77
2022/07/03 02:31:56;;;;;;;6.93;6.22;;;15.60;99.90;;;;;;5050023;28;20041;-76
2022/07/03 02:34:24;;;;;;;7.32;6.35;;;15.50;99.90;;;;;;5037794;28;20136;-77
2022/07/03 02:37:06;;;;;;;6.50;6.00;;;15.50;99.90;;;;;;5052782;28;20246;-77
2022/07/03 02:39:43;;;;;;;6.50;5.93;;;15.40;99.90;;;;;;5067712;28;20063;-81
2022/07/03 02:42:22;;;;;;;7.15;6.00;;;15.40;99.90;;;;;;5041481;28;20052;-77
2022/07/03 02:44:52;;;;;;;6.65;5.97;;;15.30;99.90;;;;;;5073157;28;20045;-77
2022/07/03 02:47:35;;;;;;;7.93;6.43;;;15.30;99.90;;;;;;5074491;28;20471;-77
2022/07/03 02:50:09;;;;;;;6.80;6.20;;;15.30;99.90;;;;;;5056371;28;20127;-77
2022/07/03 02:52:38;;;;;;;7.03;6.32;;;15.20;99.90;;;;;;5056476;28;20040;-77
2022/07/03 02:55:43;;;;;;;7.90;7.10;;;15.20;99.90;;;;;;5072741;28;20063;-77
2022/07/03 02:58:37;;;;;;;7.70;7.00;;;15.20;99.90;;;;;;5047471;28;20051;-76
2022/07/03 03:01:07;;;;;;;8.60;7.50;;;15.20;99.90;;;;;;5050504;28;20062;-77
2022/07/03 03:03:34;;;;;;;8.32;7.25;;;15.10;99.90;;;;;;5077089;28;20075;-77
2022/07/03 03:06:06;;;;;;;8.30;7.50;;;15.20;99.90;;;;;;5076829;28;20048;-77
2022/07/03 03:08:34;;;;;;;;;;;15.10;99.90;;;;;;5035046;28;20056;-78
2022/07/03 03:11:09;;;;;;;8.40;7.50;;;15.00;99.90;;;;;;5060054;28;19924;-77
2022/07/03 03:13:36;;;;;;;7.45;6.80;;;15.00;99.90;;;;;;5044152;28;20048;-77
2022/07/03 03:16:02;;;;;;;7.20;6.60;;;15.00;99.90;;;;;;5073968;28;20495;-77
2022/07/03 03:18:29;;;;;;;9.15;7.40;;;14.90;99.90;;;;;;5060092;28;20090;-77
2022/07/03 03:21:00;;;;;;;8.00;7.18;;;14.90;99.90;;;;;;5076027;28;20108;-77
2022/07/03 03:23:48;;;;;;;7.85;7.25;;;14.90;99.90;;;;;;5042625;28;20044;-77
2022/07/03 03:26:25;;;;;;;7.30;6.60;;;14.90;99.90;;;;;;5060968;28;20048;-77
2022/07/03 03:28:51;;;;;;;8.27;7.03;;;14.90;99.90;;;;;;5068574;28;20041;-77
2022/07/03 03:31:18;;;;;;;8.10;7.40;;;14.90;99.90;;;;;;5077064;28;20051;-77
2022/07/03 03:33:51;;;;;;;7.95;7.25;;;14.90;99.90;;;;;;5076187;28;20071;-77
2022/07/03 03:36:19;;;;;;;7.72;6.97;;;14.90;99.90;;;;;;5041661;28;20055;-77
2022/07/03 03:38:46;;;;;;;7.30;6.55;;;14.90;99.90;;;;;;5065880;28;20043;-77
2022/07/03 03:41:12;;;;;;;6.50;6.00;;;14.90;99.90;;;;;;5059046;28;20133;-77
2022/07/03 03:43:38;;;;;;;8.13;7.43;;;14.90;99.90;;;;;;5077064;28;20053;-77
2022/07/03 03:46:04;;;;;;;9.20;8.30;;;15.00;99.90;;;;;;5055205;28;20040;-77
2022/07/03 03:48:32;;;;;;;8.15;7.45;;;15.10;99.90;;;;;;5058892;28;20052;-77
2022/07/03 03:50:59;;;;;;;8.52;6.82;;;15.20;99.90;;;;;;5068202;28;20041;-77
2022/07/03 03:53:26;;;;;;;8.68;7.80;;;15.40;99.90;;;;;;5037313;28;20049;-77
2022/07/03 03:56:11;;;;;;;8.70;7.80;;;15.50;99.90;;;;;;5071581;28;20056;-77
2022/07/03 03:58:40;;;;;;;8.38;7.60;;;15.60;99.90;;;;;;5078441;28;20044;-77
2022/07/03 04:01:08;;;;;;;8.45;7.55;;;15.60;99.90;;;;;;5056792;28;20044;-76
2022/07/03 04:03:34;;;;;;;8.57;7.50;;;15.70;99.90;;;;;;5058498;28;20036;-77
2022/07/03 04:06:00;;;;;;;8.52;7.43;;;15.70;99.90;;;;;;5075399;28;20052;-77
2022/07/03 04:08:27;;;;;;;7.50;6.90;;;15.80;99.90;;;;;;5058387;28;20041;-75
2022/07/03 04:10:53;;;;;;;7.38;6.43;;;15.80;99.90;;;;;;5065563;28;20040;-77
2022/07/03 04:13:19;;;;;;;7.43;6.60;;;15.80;99.90;;;;;;5048623;28;20472;-77
2022/07/03 04:15:46;;;;;;;7.07;6.35;;;15.80;99.90;;;;;;5039158;28;20047;-77
2022/07/03 04:18:12;;;;;;;8.10;7.30;;;15.70;99.90;;;;;;5067418;28;20051;-77
2022/07/03 04:20:37;;;;;;;8.60;7.00;;;15.70;99.90;;;;;;5040652;28;20076;-77
2022/07/03 04:23:04;;;;;;;8.52;7.65;;;15.60;99.90;;;;;;5057908;28;20036;-77
2022/07/03 04:25:30;;;;;;;9.85;8.32;;;15.60;99.90;;;;;;5059369;28;20048;-77
2022/07/03 04:27:55;;;;;;;11.50;9.25;;;15.60;99.90;;;;;;5074595;28;20049;-77
2022/07/03 04:30:21;;;;;;;10.43;9.32;;;15.50;99.90;;;;;;5043259;28;20169;-76
2022/07/03 04:32:47;;;;;;;12.70;10.13;;;15.50;99.90;;;;;;5042224;28;20048;-77
2022/07/03 04:35:13;;;;;;;13.43;8.93;;;15.50;99.90;;;;;;5040332;28;20079;-77
2022/07/03 04:37:39;;;;;;;8.73;6.70;;;15.50;99.90;;;;;;5074498;28;20067;-76
2022/07/03 04:40:06;;;;;;;8.20;7.40;;;15.50;99.90;;;;;;5071704;28;20115;-77
2022/07/03 04:42:32;;;;;;;9.77;8.68;;;15.50;99.90;;;;;;5059711;28;20060;-76
2022/07/03 04:44:57;;;;;;;9.85;7.72;;;15.40;99.90;;;;;;5075160;28;20039;-76
2022/07/03 04:47:23;;;;;;;8.30;7.07;;;15.50;99.90;;;;;;5070168;28;20099;-76
2022/07/03 04:49:49;;;;;;;9.30;6.57;;;15.50;99.90;;;;;;5058021;28;20094;-77
2022/07/03 04:52:14;;;;;;;9.60;6.90;;;15.50;99.90;;;;;;5070750;28;20071;-77
2022/07/03 04:54:40;;;;;;;14.63;6.85;;;15.50;99.90;;;;;;5041527;28;20048;-77
2022/07/03 04:57:06;;;;;;;8.63;7.03;;;15.60;99.90;;;;;;5073776;28;20044;-73
2022/07/03 04:59:31;;;;;;;6.90;6.13;;;15.60;99.90;;;;;;5070893;28;20047;-74
2022/07/03 05:01:57;;;;;;;7.28;6.68;;;15.60;99.90;;;;;;5067663;28;20051;-76
2022/07/03 05:04:23;;;;;;;7.38;6.53;;;15.60;99.90;;;;;;5037970;28;20044;-75
2022/07/03 05:06:48;;;;;;;7.80;7.05;;;15.70;99.90;;;;;;5065858;28;20033;-74
2022/07/03 05:09:15;;;;;;;9.65;6.68;;;15.70;99.90;;;;;;5038459;28;20401;-76
2022/07/03 05:11:41;;;;;;;7.50;6.40;;;15.70;99.90;;;;;;5036382;28;20108;-75
2022/07/03 05:14:07;;;;;;;7.78;7.03;;;15.70;99.90;;;;;;5058222;28;20049;-76
2022/07/03 05:16:33;;;;;;;7.05;6.35;;;15.70;99.90;;;;;;5069964;28;20132;-75
2022/07/03 05:18:59;;;;;;;7.10;6.22;;;15.70;99.90;;;;;;5033819;28;20096;-76
2022/07/03 05:21:25;;;;;;;7.03;6.28;;;15.70;99.90;;;;;;5067800;28;20044;-75
2022/07/03 05:23:51;;;;;;;8.70;6.90;;;15.70;99.90;;;;;;5075766;28;20052;-76
2022/07/03 05:26:17;;;;;;;8.32;7.10;;;15.70;99.90;;;;;;5041479;28;20048;-74
2022/07/03 05:28:42;;;;;;;8.88;7.07;;;15.80;99.90;;;;;;5072697;28;20045;-74
2022/07/03 05:31:08;;;;;;;7.80;6.55;;;15.80;99.90;;;;;;5040553;28;20078;-73
2022/07/03 05:33:34;;;;;;;7.30;6.60;;;15.90;99.90;;;;;;5057699;28;20146;-76
2022/07/03 05:36:00;;;;;;;8.18;6.20;;;15.90;99.90;;;;;;5034167;28;20068;-77
2022/07/03 05:41:11;;;;;;;8.43;7.63;;;16.20;99.90;;;;;;5059049;28;20104;-72
2022/07/03 05:43:37;;;;;;;8.45;6.22;;;16.30;99.90;;;;;;5057623;28;20061;-79
2022/07/03 05:46:04;;;;;;;9.18;6.28;;;16.40;99.90;;;;;;5056190;28;20052;-70
2022/07/03 05:48:30;;;;;;;9.48;6.68;;;16.50;99.90;;;;;;5068805;28;20064;-71
2022/07/03 05:50:55;;;;;;;9.05;7.05;;;16.70;99.90;;;;;;5038180;28;20071;-70
2022/07/03 05:53:21;;;;;;;7.90;5.88;;;16.90;99.90;;;;;;5069389;28;20041;-73
2022/07/03 05:55:47;;;;;;;7.88;5.63;;;17.10;99.90;;;;;;5050287;28;20127;-71
2022/07/03 05:58:12;;;;;;;5.38;4.05;;;17.20;99.90;;;;;;5073848;28;20094;-71
2022/07/03 06:00:38;;;;;;;8.50;5.95;;;17.50;99.90;;;;;;5075965;28;20123;-71
2022/07/03 06:03:04;;;;;;;6.35;4.38;;;17.70;99.90;;;;;;5047591;28;20059;-71
2022/07/03 06:05:29;;;;;;;5.72;4.60;;;18.00;99.90;;;;;;5054271;28;20346;-71
2022/07/03 06:07:55;;;;;;;4.60;3.95;;;18.20;99.90;;;;;;5056073;28;20036;-71
2022/07/03 06:10:21;;;;;;;6.20;3.33;;;18.40;99.90;;;;;;5055677;28;20097;-70
2022/07/03 06:12:47;;;;;;;4.60;2.88;;;18.60;99.90;;;;;;5074801;28;20064;-71
2022/07/03 06:15:13;;;;;;;5.43;3.08;;;18.90;99.90;;;;;;5071657;28;20139;-71
2022/07/03 06:17:38;;;;;;;2.88;2.22;;;19.10;99.90;;;;;;5064181;28;20044;-71
2022/07/03 06:20:05;;;;;;;4.35;2.65;;;19.20;99.90;;;;;;5032943;28;20059;-71
2022/07/03 06:22:31;;;;;;;3.95;2.30;;;19.30;99.90;;;;;;5065281;28;20037;-71
2022/07/03 06:24:57;;;;;;;3.97;2.10;;;19.50;99.90;;;;;;5070387;28;20040;-71
2022/07/03 06:27:22;;;;;;;2.88;1.90;;;19.70;99.90;;;;;;5063681;28;20053;-71
2022/07/03 06:29:49;;;;;;;3.20;1.75;;;19.90;99.90;;;;;;5065767;28;20131;-71
2022/07/03 06:32:16;;;;;;;2.42;1.70;;;20.00;99.90;;;;;;5066177;28;20045;-71
2022/07/03 06:34:44;;;;;;;3.95;1.52;;;20.20;99.90;;;;;;5076905;28;20058;-71
2022/07/03 06:37:10;;;;;;;3.95;1.58;;;20.30;99.90;;;;;;5075588;28;20048;-72
2022/07/03 06:39:36;;;;;;;3.78;1.80;;;20.50;99.90;;;;;;5077316;28;20052;-72
2022/07/03 06:42:02;;;;;;;4.43;1.50;;;20.60;99.90;;;;;;5056595;28;20101;-71
2022/07/03 06:44:28;;;;;;;3.92;1.67;;;20.70;99.90;;;;;;5064841;28;20048;-72
2022/07/03 06:46:54;;;;;;;2.05;1.55;;;20.90;99.90;;;;;;5048923;28;20025;-72
2022/07/03 06:49:19;;;;;;;2.33;1.48;;;21.00;99.90;;;;;;5053408;28;20047;-71
2022/07/03 06:51:45;;;;;;;2.28;1.27;;;21.20;99.90;;;;;;5074072;28;20055;-72
2022/07/03 06:54:11;;;;;;;4.40;1.60;;;21.20;99.90;;;;;;5076019;28;20056;-72
2022/07/03 06:56:37;;;;;;;7.45;1.60;;;21.30;99.90;;;;;;5076474;28;20048;-72
2022/07/03 06:59:03;;;;;;;3.42;1.52;;;21.40;99.90;;;;;;5076316;28;20048;-71
2022/07/03 07:01:29;;;;;;;1.90;1.50;;;21.60;99.90;;;;;;5075647;28;20078;-72
2022/07/03 07:03:55;;;;;;;2.33;1.30;;;21.60;99.90;;;;;;5059794;28;20045;-73
2022/07/03 07:06:21;;;;;;;2.90;1.50;;;21.40;99.90;;;;;;5058286;28;20048;-74
2022/07/03 07:08:47;;;;;;;2.95;1.42;;;21.30;99.90;;;;;;5067694;28;20049;-73
2022/07/03 07:11:13;;;;;;;2.47;1.75;;;21.10;99.90;;;;;;5059202;28;20059;-73
2022/07/03 07:13:38;;;;;;;2.00;1.60;;;20.90;99.90;;;;;;5075724;28;20046;-73
2022/07/03 07:16:04;;;;;;;3.42;1.55;;;20.80;99.90;;;;;;5025018;28;20071;-73
2022/07/03 07:18:30;;;;;;;2.83;1.60;;;20.70;99.90;;;;;;5075066;28;20036;-72
2022/07/03 07:20:56;;;;;;;5.53;1.75;;;20.60;99.90;;;;;;5075985;28;20060;-73
2022/07/03 07:23:22;;;;;;;3.05;1.58;;;20.60;99.90;;;;;;5058831;28;20051;-74
2022/07/03 07:25:48;;;;;;;2.25;1.40;;;20.50;99.90;;;;;;5022908;28;20053;-73
2022/07/03 07:28:13;;;;;;;4.10;1.70;;;20.60;99.90;;;;;;5072742;28;20041;-73
2022/07/03 07:30:39;;;;;;;3.70;1.30;;;20.70;99.90;;;;;;5063736;28;20044;-73
2022/07/03 07:33:06;;;;;;;2.05;1.50;;;21.00;99.90;;;;;;5074557;28;20056;-74
2022/07/03 07:35:32;;;;;;;3.83;1.52;;;21.20;99.90;;;;;;5075709;28;20045;-74
2022/07/03 07:37:58;;;;;;;2.53;1.58;;;21.30;99.90;;;;;;5057585;28;20109;-73
2022/07/03 07:40:23;;;;;;;3.83;1.70;;;21.40;99.90;;;;;;5074306;28;20048;-74
2022/07/03 07:42:49;;;;;;;4.00;1.63;;;21.60;99.90;;;;;;5075293;28;20104;-73
2022/07/03 07:45:15;;;;;;;1.92;1.70;;;21.80;99.90;;;;;;5065519;28;20103;-73
2022/07/03 07:47:41;;;;;;;3.35;1.80;;;22.00;99.90;;;;;;5052117;28;20087;-73
2022/07/03 07:50:07;;;;;;;3.30;1.42;;;22.20;99.90;;;;;;5070832;28;20040;-73
2022/07/03 07:52:33;;;;;;;5.93;1.80;;;22.30;99.90;;;;;;5074838;28;20044;-73
2022/07/03 07:54:59;;;;;;;3.40;1.80;;;22.50;99.90;;;;;;5052099;28;20063;-73
2022/07/03 07:57:24;;;;;;;2.92;1.70;;;22.60;99.90;;;;;;5074338;28;20116;-73
2022/07/03 07:59:50;;;;;;;5.38;1.80;;;22.60;99.90;;;;;;5063698;28;20051;-73
2022/07/03 08:07:59;;;;;;;2.55;1.48;;;23.00;99.90;;;;;;5075694;28;20048;-74
2022/07/03 08:10:24;;;;;;;3.95;1.85;;;23.00;99.90;;;;;;5061219;28;20062;-74
2022/07/03 08:12:50;;;;;;;2.67;2.05;;;22.90;99.90;;;;;;5058000;28;20068;-75
2022/07/03 08:15:16;;;;;;;2.75;1.52;;;22.90;99.90;;;;;;5021575;28;20044;-73
2022/07/03 08:17:41;;;;;;;3.85;1.85;;;23.00;99.90;;;;;;5034349;28;20656;-73
2022/07/03 08:20:08;;;;;;;4.63;1.85;;;23.00;99.90;;;;;;5017359;28;20106;-74
2022/07/03 08:22:34;;;;;;;2.90;1.63;;;23.10;99.90;;;;;;5055391;28;20123;-73
2022/07/03 08:25:00;;;;;;;5.53;1.70;;;23.20;99.90;;;;;;5040683;28;20060;-75
2022/07/03 08:27:25;;;;;;;2.72;1.50;;;23.30;99.90;;;;;;5041003;28;20063;-74
2022/07/03 08:29:51;;;;;;;2.20;1.50;;;23.40;99.90;;;;;;5068523;28;20538;-75
2022/07/03 08:32:17;;;;;;;3.92;1.95;;;23.50;99.90;;;;;;4996585;28;1116127;-74
2022/07/03 08:34:43;;;;;;;3.70;1.70;;;23.40;99.90;;;;;;5075734;28;20335;-74
2022/07/03 08:37:09;;;;;;;4.10;2.00;;;23.30;99.90;;;;;;5057741;28;20066;-75
2022/07/03 08:39:35;;;;;;;2.83;1.67;;;23.20;99.90;;;;;;5058996;28;20503;-74
2022/07/03 08:42:01;;;;;;;1.60;1.48;;;23.10;99.90;;;;;;5054734;28;20068;-74
2022/07/03 08:44:28;;;;;;;2.60;1.33;;;23.00;99.90;;;;;;5058584;28;20048;-74
2022/07/03 08:46:56;;;;;;;1.83;1.67;;;22.90;99.90;;;;;;5068195;28;20049;-74
2022/07/03 08:49:22;;;;;;;4.50;1.95;;;22.70;99.90;;;;;;5041434;28;20032;-74
2022/07/03 08:51:49;;;;;;;4.28;1.90;;;22.60;99.90;;;;;;5058309;28;20174;-74
2022/07/03 08:54:15;;;;;;;2.92;2.00;;;22.50;99.90;;;;;;5038870;28;20056;-74
2022/07/03 08:56:42;;;;;;;4.30;1.77;;;22.40;99.90;;;;;;5036693;28;20047;-74
2022/07/03 08:59:08;;;;;;;3.95;2.47;;;22.30;99.90;;;;;;5058016;28;20040;-74
2022/07/03 09:01:34;;;;;;;11.70;2.78;;;22.30;99.90;;;;;;5075003;28;20075;-74
2022/07/03 09:04:01;;;;;;;2.28;1.83;;;22.30;99.90;;;;;;5069433;28;20052;-74
2022/07/03 09:06:33;;;;;;;3.63;2.30;;;22.40;99.90;;;;;;5041043;28;20041;-75
2022/07/03 09:09:03;;;;;;;2.97;1.80;;;22.40;99.90;;;;;;5074706;28;20048;-74
2022/07/03 09:11:29;;;;;;;2.97;1.73;;;22.60;99.90;;;;;;5057939;28;20096;-73
2022/07/03 09:13:54;;;;;;;1.90;1.70;;;22.60;99.90;;;;;;5058225;28;20098;-73
2022/07/03 09:16:20;;;;;;;3.85;2.47;;;22.50;99.90;;;;;;5036647;28;20044;-73
2022/07/03 09:18:46;;;;;;;5.80;2.00;;;22.40;99.90;;;;;;5050836;28;20507;-73
2022/07/03 09:21:12;;;;;;;2.83;1.88;;;22.30;99.90;;;;;;5051898;28;20036;-75
2022/07/03 09:23:40;;;;;;;2.85;2.10;;;22.30;99.90;;;;;;5071977;28;20098;-73
2022/07/03 09:26:07;;;;;;;2.97;1.98;;;22.20;99.90;;;;;;5075371;28;20046;-72
2022/07/03 09:28:52;;;;;;;11.20;4.10;;;22.20;99.90;;;;;;5057048;28;20040;-75
2022/07/03 09:31:18;;;;;;;5.30;2.40;;;22.30;99.90;;;;;;5074829;28;20082;-73
2022/07/03 09:34:21;;;;;;;4.75;2.55;;;22.20;99.90;;;;;;5058170;28;20088;-75
2022/07/03 09:36:51;;;;;;;5.43;3.45;;;22.20;99.90;;;;;;5046077;28;20047;-73
2022/07/03 09:39:22;;;;;;;5.20;2.38;;;22.40;99.90;;;;;;5073858;28;21754;-73
2022/07/03 09:41:57;;;;;;;4.20;1.50;;;22.60;99.90;;;;;;5075818;28;20063;-76
2022/07/03 09:44:34;;;;;;;3.08;1.52;;;22.90;99.90;;;;;;5074900;28;20048;-74
2022/07/03 09:47:21;;;;;;;1.85;1.38;;;23.10;99.90;;;;;;5074662;28;20054;-74
2022/07/03 09:50:11;;;;;;;2.67;1.52;;;23.20;99.90;;;;;;5073230;28;20048;-74
2022/07/03 09:52:37;;;;;;;4.75;1.92;;;23.50;99.90;;;;;;5064117;28;20083;-75
2022/07/03 09:55:09;;;;;;;3.20;1.73;;;23.60;99.90;;;;;;5066522;28;20592;-75
2022/07/03 09:57:50;;;;;;;3.95;1.35;;;23.90;99.90;;;;;;5064398;28;20048;-84
2022/07/03 10:00:25;;;;;;;2.40;1.50;;;23.90;99.90;;;;;;5057766;28;20059;-80
2022/07/03 10:03:05;;;;;;;2.92;1.80;;;23.60;98.30;;;;;;5073209;28;20087;-80
2022/07/03 10:05:35;;;;;;;2.67;1.30;;;23.70;99.60;;;;;;5067587;28;20063;-79
2022/07/03 10:08:06;;;;;;;2.22;1.23;;;23.70;99.60;;;;;;5071912;28;20052;-79
2022/07/03 10:10:35;;;;;;;2.78;1.40;;;23.60;98.90;;;;;;5072720;28;20874;-80
2022/07/03 10:13:01;;;;;;;6.47;1.88;;;23.50;99.30;;;;;;5070690;28;20049;-80
2022/07/03 10:15:29;;;;;;;2.10;1.20;;;23.40;98.70;;;;;;5071868;28;20072;-80
2022/07/03 10:17:57;;;;;;;3.53;1.40;;;23.30;98.80;;;;;;5071032;28;20052;-81
2022/07/03 10:20:48;;;;;;;2.65;1.30;;;23.40;98.80;;;;;;5072129;28;20110;-80
2022/07/03 10:23:20;;;;;;;2.22;1.50;;;23.50;98.40;;;;;;5072127;28;20063;-81
2022/07/03 10:25:47;;;;;;;1.92;1.38;;;23.70;98.70;;;;;;5072033;28;20518;-81
2022/07/03 10:28:14;;;;;;;1.15;0.90;;;23.90;97.20;;;;;;5072204;28;20040;-81
2022/07/03 10:30:44;;;;;;;1.90;1.00;;;24.00;97.00;;;;;;5072172;28;20590;-81
2022/07/03 10:33:10;;;;;;;1.05;0.85;;;24.00;96.10;;;;;;5071857;28;20052;-81
2022/07/03 10:35:39;;;;;;;1.38;0.90;;;24.00;94.70;;;;;;5056022;28;20060;-78
2022/07/03 10:38:10;;;;;;;1.83;1.08;;;24.10;92.90;;;;;;5050802;28;20098;-80
2022/07/03 10:46:33;;;;;;;0.98;0.93;;;24.60;90.50;;;;;;5066721;28;20056;-82
2022/07/03 10:49:02;;;;;;;1.92;0.80;;;24.80;88.80;;;;;;5072456;28;20419;-81
2022/07/03 10:51:31;;;;;;;2.40;0.90;;;24.80;87.80;;;;;;5072901;28;20113;-81
2022/07/03 10:54:42;;;;;;;1.85;0.90;;;24.70;87.90;;;;;;5070501;28;20484;-82
2022/07/03 10:57:15;;;;;;;1.60;0.90;;;24.90;90.50;;;;;;5064279;28;20052;-82
2022/07/03 10:59:43;;;;;;;0.93;0.82;;;25.20;89.10;;;;;;5055809;28;20059;-79
2022/07/03 11:02:31;;;;;;;1.08;0.90;;;25.30;79.90;;;;;;5071695;28;20053;-81
2022/07/03 11:04:57;;;;;;;2.92;0.95;;;25.40;78.30;;;;;;5072769;28;20140;-82
2022/07/03 11:07:31;;;;;;;2.10;1.10;;;25.30;80.80;;;;;;5066087;28;20526;-81
2022/07/03 11:10:09;;;;;;;1.50;1.10;;;25.30;81.60;;;;;;5063048;28;20588;-81
2022/07/03 11:13:10;;;;;;;1.88;0.80;;;25.40;75.40;;;;;;5071195;28;20068;-82
2022/07/03 11:15:52;;;;;;;1.45;0.90;;;25.60;67.80;;;;;;5072144;28;20710;-81
2022/07/03 11:18:27;;;;;;;1.20;0.80;;;25.40;68.90;;;;;;5063240;28;20041;-82
2022/07/03 11:20:52;;;;;;;1.50;0.90;;;25.00;71.50;;;;;;5062338;28;20046;-82
2022/07/03 11:23:27;;;;;;;3.08;1.00;;;24.80;77.20;;;;;;5078624;28;20075;-82
2022/07/03 11:26:01;;;;;;;1.13;0.85;;;24.70;80.00;;;;;;5076099;28;20048;-81
2022/07/03 11:28:33;;;;;;;1.27;0.90;;;24.50;79.90;;;;;;5074161;28;20079;-81
2022/07/03 11:31:08;;;;;;;1.58;0.88;;;24.20;76.30;;;;;;5070008;28;20105;-82
2022/07/03 11:33:52;;;;;;;1.42;0.80;;;24.10;81.90;;;;;;5066950;28;20059;-81
2022/07/03 11:36:17;;;;;;;1.80;1.00;;;24.10;83.50;;;;;;5050285;28;20052;-81
2022/07/03 11:38:45;;;;;;;1.33;0.80;;;24.30;82.90;;;;;;5075598;28;20051;-81
2022/07/03 11:41:12;;;;;;;1.70;0.77;;;24.40;82.70;;;;;;5055682;28;20051;-81
2022/07/03 11:43:47;;;;;;;2.33;0.80;;;24.70;83.30;;;;;;5071727;28;20123;-82
2022/07/03 11:46:20;;;;;;;3.08;0.80;;;24.90;75.30;;;;;;5059429;28;20112;-82
2022/07/03 11:48:46;;;;;;;1.42;0.93;;;25.10;79.60;;;;;;5074341;28;20045;-82
2022/07/03 11:51:12;;;;;;;0.93;0.77;;;25.10;77.80;;;;;;5075311;28;20125;-82
2022/07/03 11:53:39;;;;;;;0.95;0.80;;;25.30;78.90;;;;;;5054461;28;20079;-82
2022/07/03 11:56:09;;;;;;;1.95;1.10;;;25.50;74.30;;;;;;5051080;28;20052;-82
2022/07/03 11:58:50;;;;;;;0.77;0.77;;;25.60;72.10;;;;;;5057464;28;20052;-82
2022/07/03 12:01:22;;;;;;;1.15;0.90;;;25.90;79.10;;;;;;5063385;28;20075;-82
2022/07/03 12:03:48;;;;;;;1.08;0.80;;;26.00;74.80;;;;;;5065959;28;20092;-82
2022/07/03 12:06:14;;;;;;;1.52;0.75;;;26.00;71.40;;;;;;5073804;28;20060;-81
2022/07/03 12:08:42;;;;;;;1.83;0.88;;;25.90;74.80;;;;;;5072656;28;20052;-82
2022/07/03 12:11:09;;;;;;;1.52;0.73;;;25.90;72.20;;;;;;5040108;28;20044;-82
2022/07/03 12:13:35;;;;;;;1.83;0.90;;;25.90;73.90;;;;;;5074246;28;20040;-81
2022/07/03 12:16:07;;;;;;;1.70;0.80;;;25.90;70.80;;;;;;5069821;28;20049;-82
2022/07/03 12:18:53;;;;;;;2.25;0.90;;;25.80;71.60;;;;;;5064678;28;20115;-81
2022/07/03 12:21:23;;;;;;;2.63;0.80;;;25.90;74.20;;;;;;5065550;28;20084;-81
2022/07/03 12:23:55;;;;;;;2.13;0.80;;;26.00;68.30;;;;;;5071989;28;20037;-82
2022/07/03 12:26:32;;;;;;;2.35;0.80;;;26.10;68.80;;;;;;5065102;28;20051;-81
2022/07/03 12:29:00;;;;;;;2.03;0.90;;;26.20;74.30;;;;;;5067174;28;20723;-83
2022/07/03 12:31:26;;;;;;;2.22;1.13;;;26.40;73.70;;;;;;5072420;28;20058;-81
2022/07/03 12:33:52;;;;;;;2.55;1.08;;;26.30;69.40;;;;;;5069856;28;20041;-81
2022/07/03 12:36:18;;;;;;;4.53;1.15;;;26.30;72.00;;;;;;5051257;28;20084;-82
2022/07/03 12:38:56;;;;;;;2.85;1.10;;;26.20;71.50;;;;;;5074489;28;20037;-82
2022/07/03 12:41:24;;;;;;;5.55;1.02;;;26.40;75.10;;;;;;5050412;28;20508;-82
2022/07/03 12:43:51;;;;;;;2.75;1.00;;;26.40;69.80;;;;;;5057148;28;20071;-82
2022/07/03 12:46:17;;;;;;;2.40;0.90;;;26.20;71.00;;;;;;5073216;28;20064;-81
2022/07/03 12:48:47;;;;;;;3.60;0.80;;;25.90;69.20;;;;;;5072424;28;20561;-82
2022/07/03 12:51:13;;;;;;;2.88;1.35;;;25.90;70.30;;;;;;5051810;28;20052;-82
2022/07/03 12:53:39;;;;;;;1.20;0.88;;;25.90;72.90;;;;;;5056727;28;20059;-82
2022/07/03 12:56:07;;;;;;;3.33;0.82;;;25.90;67.50;;;;;;5068939;28;20187;-81
2022/07/03 13:01:34;;;;;;;1.42;1.08;;;25.50;71.20;;;;;;5062183;28;20745;-82
2022/07/03 13:04:00;;;;;;;2.03;0.80;;;25.50;74.80;;;;;;5068100;28;20051;-82
2022/07/03 13:06:26;;;;;;;3.65;1.05;;;25.60;76.30;;;;;;5073150;28;20048;-82
2022/07/03 13:08:56;;;;;;;4.97;1.20;;;25.90;76.40;;;;;;5055866;28;20041;-82
2022/07/03 13:11:39;;;;;;;2.90;1.10;;;25.90;78.20;;;;;;5051527;28;20059;-82
2022/07/03 13:14:18;;;;;;;2.05;1.00;;;25.80;75.70;;;;;;5068486;28;20052;-82
2022/07/03 13:16:50;;;;;;;3.30;1.27;;;25.70;76.30;;;;;;5073769;28;20041;-82
2022/07/03 13:19:19;;;;;;;;;;;25.50;76.90;;;;;;5068629;28;20052;-81